Nearby METAR Reports

 

KBVO - Bartlesville, Oklahoma, USA
Distance from station: WNW 10mi, 16km
Updated: Sat, 20-Jul-2019 9:53pm CDT
Clear
Clear
 Wind from SSW
Wind: SSW 6 mph , 9 km/h
Temperature: 82°F , 28°C
Heat Index: 87°F , 31°C
Dew Point: 73°F , 23°C
Humidity: 74%
Barometer: 29.86 inHg , 1011.2 hPa
Clouds: Clear
Visibility: 10 miles , 16 km
2019/07/21 02:53 KBVO 210253Z AUTO 20005KT 10SM CLR 28/23 A2986 RMK AO2 SLP099 T02830233 51014
KCFV - Coffeyville, Kansas, USA
Distance from station: NNE 31mi, 49km
Updated: Sat, 20-Jul-2019 9:52pm CDT
Clear
Clear
 Wind from S
Wind: S 13 mph , 20 km/h
Temperature: 84°F , 29°C
Heat Index: 90°F , 32°C
Dew Point: 73°F , 23°C
Humidity: 70%
Barometer: 29.84 inHg , 1010.5 hPa
Clouds: Clear
Visibility: 10 miles , 16 km
2019/07/21 02:52 KCFV 210252Z AUTO 18011KT 10SM CLR 29/23 A2984 RMK AO2 SLP094 T02940228 51007
 
KIDP - Independence, Kansas, USA
Distance from station: N 32mi, 52km
Updated: Sat, 20-Jul-2019 10:15pm CDT
Clear
Clear
 Wind from S
Wind: S 13 mph , 20 km/h
Temperature: 82°F , 28°C
Heat Index: 89°F , 32°C
Dew Point: 75°F , 24°C
Humidity: 79%
Barometer: 29.85 inHg , 1010.8 hPa
Clouds: Clear
Visibility: 10 miles , 16 km
2019/07/21 03:15 KIDP 210315Z AUTO 18011KT 10SM CLR 28/24 A2985 RMK AO2 T02850236
KGCM - Claremore, Oklahoma, USA
Distance from station: SE 35mi, 56km
Updated: Sat, 20-Jul-2019 10:15pm CDT
Clear
Clear
 Wind from S
Wind: S 3 mph , 6 km/h
Temperature: 81°F , 27°C
Heat Index: 85°F , 29°C
Dew Point: 72°F , 22°C
Humidity: 74%
Barometer: 29.90 inHg , 1012.5 hPa
Clouds: Clear
Visibility: 10 miles , 16 km
2019/07/21 03:15 KGCM 210315Z AUTO 18003KT 10SM CLR 27/22 A2990 RMK AO2
 
KTUL - Tulsa, Oklahoma, USA
Distance from station: S 35mi, 56km
Updated: Sat, 20-Jul-2019 9:53pm CDT
Clear
Clear
 Wind from S
Wind: S 9 mph , 15 km/h
Temperature: 88°F , 31°C
Heat Index: 96°F , 36°C
Dew Point: 73°F , 23°C
Humidity: 62%
Barometer: 29.85 inHg , 1010.8 hPa
Clouds: Clear
Visibility: 10 miles , 16 km
2019/07/21 02:53 KTUL 210253Z 17008KT 10SM CLR 31/23 A2985 RMK AO2 SLP097 T03110233 53014
KRVS - Tulsa, Oklahoma, USA
Distance from station: S 46mi, 74km
Updated: Sat, 20-Jul-2019 9:53pm CDT
Clear
Clear
 Wind from S
Wind: S 5 mph , 7 km/h
Temperature: 88°F , 31°C
Heat Index: 96°F , 36°C
Dew Point: 73°F , 23°C
Humidity: 62%
Barometer: 29.86 inHg , 1011.2 hPa
Clouds: Clear
Visibility: 10 miles , 16 km
2019/07/21 02:53 KRVS 210253Z 17004KT 10SM CLR 31/23 A2986 RMK AO2 SLP111 LAST T03110228 53011
 
KPPF - Parsons, Kansas, USA
Distance from station: NNE 48mi, 76km
Updated: Sat, 20-Jul-2019 9:52pm CDT
Clear
Clear
 Wind from S
Wind: S 9 mph , 15 km/h
Temperature: 84°F , 29°C
Heat Index: 90°F , 32°C
Dew Point: 73°F , 23°C
Humidity: 70%
Barometer: 29.86 inHg , 1011.2 hPa
Clouds: Clear
Visibility: 10 miles , 16 km
2019/07/21 02:52 KPPF 210252Z AUTO 18008KT 10SM CLR 29/23 A2986 RMK AO2 SLP098 T02940233 51007
KGMJ - Grove, Oklahoma, USA
Distance from station: E 63mi, 101km
Updated: Sat, 20-Jul-2019 10:15pm CDT
Clear
Clear
 Wind from SSE
Wind: SSE 6 mph , 9 km/h
Temperature: 79°F , 26°C
Dew Point: 70°F , 21°C
Humidity: 74%
Barometer: 29.90 inHg , 1012.5 hPa
Clouds: Clear
Visibility: 10 miles , 16 km
2019/07/21 03:15 KGMJ 210315Z AUTO 16005KT 10SM CLR 26/21 A2990 RMK AO2
 
KPNC - Ponca City, Oklahoma, USA
Distance from station: W 69mi, 111km
Updated: Sat, 20-Jul-2019 9:53pm CDT
Clear
Clear
 Wind from SSE
Wind: SSE 13 mph , 20 km/h
Temperature: 88°F , 31°C
Heat Index: 93°F , 34°C
Dew Point: 70°F , 21°C
Humidity: 55%
Barometer: 29.84 inHg , 1010.5 hPa
Clouds: Clear
Visibility: 10 miles , 16 km
2019/07/21 02:53 KPNC 210253Z AUTO 15011KT 10SM CLR 31/21 A2984 RMK AO2 SLP090 T03060206 53018
KCNU - Chanute, Kansas, USA
Distance from station: NNE 69mi, 112km
Updated: Sat, 20-Jul-2019 9:52pm CDT
Clear
Clear
 Wind from S
Wind: S 9 mph , 15 km/h
Temperature: 84°F , 29°C
Heat Index: 90°F , 32°C
Dew Point: 73°F , 23°C
Humidity: 70%
Barometer: 29.86 inHg , 1011.2 hPa
Clouds: Clear
Visibility: 10 miles , 16 km
2019/07/21 02:52 KCNU 210252Z AUTO 17008KT 10SM CLR 29/23 A2986 RMK AO2 SLP095 T02940233 53007